Time;durP1;ratioP1;P1;durP2;ratioP2;P2;SDS_P1;SDS_P2;PMS_P1;PMS_P2;Temp;Humidity;BMP_temperature;BMP_pressure;BME280_temperature;BME280_humidity;BME280_pressure;Samples;Min_cycle;Max_cycle;Signal;HPM_P1;HPM_P2
2023/12/29 00:01:11;;;;;;;14.40;8.30;;;;;;;4.13;82.95;100174.66;110854;244;153619;-69
2023/12/29 00:03:47;;;;;;;12.80;8.30;;;;;;;4.16;83.21;100173.40;110855;245;175719;-72
2023/12/29 00:06:21;;;;;;;14.10;9.10;;;;;;;4.18;83.24;100171.65;110993;245;38261;-70
2023/12/29 00:08:55;;;;;;;15.10;9.40;;;;;;;4.19;83.32;100166.47;110923;245;39976;-72
2023/12/29 00:11:29;;;;;;;14.60;8.60;;;;;;;4.18;83.34;100169.75;110988;245;39262;-71
2023/12/29 00:14:03;;;;;;;12.80;8.50;;;;;;;4.19;83.25;100159.73;110845;244;155491;-69
2023/12/29 00:16:37;;;;;;;14.20;8.40;;;;;;;4.21;83.26;100158.85;110969;245;39008;-72
2023/12/29 00:19:11;;;;;;;14.70;8.70;;;;;;;4.24;83.40;100159.48;110834;245;154882;-68
2023/12/29 00:21:45;;;;;;;16.30;9.40;;;;;;;4.27;83.53;100162.34;110947;245;38538;-68
2023/12/29 00:24:20;;;;;;;15.70;9.30;;;;;;;4.29;83.59;100157.51;110820;244;153909;-70
2023/12/29 00:26:54;;;;;;;16.50;9.50;;;;;;;4.30;83.62;100153.01;111029;245;38248;-70
2023/12/29 00:29:32;;;;;;;15.70;8.00;;;;;;;4.29;83.62;100156.48;110978;245;39955;-68
2023/12/29 00:32:07;;;;;;;16.90;8.70;;;;;;;4.30;83.64;100153.35;110812;245;155004;-68
2023/12/29 00:34:41;;;;;;;12.60;7.80;;;;;;;4.32;83.72;100149.86;110941;245;38271;-71
2023/12/29 00:37:14;;;;;;;14.80;8.50;;;;;;;4.37;83.78;100150.64;110811;244;155675;-70
2023/12/29 00:39:48;;;;;;;14.40;9.20;;;;;;;4.41;83.89;100150.59;110869;245;175642;-70
2023/12/29 00:42:24;;;;;;;14.10;8.80;;;;;;;4.41;83.82;100154.38;110831;245;154987;-69
2023/12/29 00:44:57;;;;;;;14.90;8.60;;;;;;;4.41;83.73;100151.42;110978;245;39999;-70
2023/12/29 00:47:31;;;;;;;13.10;8.00;;;;;;;4.39;83.74;100154.40;110951;245;40379;-70
2023/12/29 00:50:08;;;;;;;13.40;8.40;;;;;;;4.39;83.86;100151.13;110798;244;154048;-71
2023/12/29 00:52:42;;;;;;;11.80;7.90;;;;;;;4.43;83.80;100147.95;110957;245;38259;-68
2023/12/29 00:55:16;;;;;;;11.80;7.30;;;;;;;4.46;83.80;100148.94;110875;245;155203;-71
2023/12/29 00:57:50;;;;;;;13.10;7.80;;;;;;;4.50;83.87;100148.54;110966;245;39144;-72
2023/12/29 01:00:26;;;;;;;14.80;7.30;;;;;;;4.51;83.77;100148.16;110818;244;153428;-73
2023/12/29 01:03:00;;;;;;;11.90;7.80;;;;;;;4.52;83.70;100146.75;111002;244;38397;-70
2023/12/29 01:05:34;;;;;;;12.10;8.30;;;;;;;4.49;83.52;100149.23;111114;244;38469;-72
2023/12/29 01:08:09;;;;;;;12.50;7.90;;;;;;;4.45;83.38;100147.23;110885;244;153975;-73
2023/12/29 01:10:42;;;;;;;11.70;7.60;;;;;;;4.46;83.39;100147.39;110979;245;38249;-72
2023/12/29 01:13:17;;;;;;;13.50;7.90;;;;;;;4.48;83.29;100145.61;110957;245;39532;-71
2023/12/29 01:15:51;;;;;;;13.20;8.30;;;;;;;4.50;83.34;100139.90;110995;245;38227;-73
2023/12/29 01:18:25;;;;;;;10.30;7.70;;;;;;;4.51;83.34;100135.38;110811;244;153840;-70
2023/12/29 01:20:58;;;;;;;12.60;7.40;;;;;;;4.50;83.24;100133.14;110993;245;38930;-73
2023/12/29 01:23:32;;;;;;;13.30;8.10;;;;;;;4.48;83.17;100131.10;110997;245;39736;-71
2023/12/29 01:26:06;;;;;;;11.70;7.30;;;;;;;4.47;82.97;100129.91;110958;245;39764;-72
2023/12/29 01:28:40;;;;;;;10.80;7.60;;;;;;;4.45;82.91;100122.35;110915;245;38569;-70
2023/12/29 01:31:14;;;;;;;8.90;6.60;;;;;;;4.45;82.83;100120.97;110862;244;155319;-70
2023/12/29 01:33:48;;;;;;;13.00;7.80;;;;;;;4.44;82.80;100120.14;110855;245;172883;-70
2023/12/29 01:36:25;;;;;;;11.50;7.60;;;;;;;4.43;82.85;100117.03;110838;244;154700;-70
2023/12/29 01:38:59;;;;;;;12.80;7.80;;;;;;;4.39;82.75;100113.14;110912;245;38186;-70
2023/12/29 01:41:33;;;;;;;12.30;7.20;;;;;;;4.37;82.70;100109.52;110960;245;38378;-70
2023/12/29 01:44:24;;;;;;;11.00;7.00;;;;;;;4.37;82.64;100104.35;110942;245;38351;-73
2023/12/29 01:47:00;;;;;;;10.80;7.60;;;;;;;4.38;82.72;100103.46;110970;245;38240;-73
2023/12/29 01:49:37;;;;;;;10.20;7.00;;;;;;;4.38;82.75;100099.32;110817;244;154393;-73
2023/12/29 01:52:10;;;;;;;11.20;6.90;;;;;;;4.37;82.74;100095.70;110990;245;39466;-72
2023/12/29 01:54:44;;;;;;;11.40;7.30;;;;;;;4.36;82.61;100088.99;110858;244;155088;-72
2023/12/29 01:57:18;;;;;;;12.30;7.50;;;;;;;4.33;82.66;100084.21;110971;245;38528;-73
2023/12/29 01:59:52;;;;;;;11.70;6.70;;;;;;;4.31;82.60;100083.40;110985;245;38786;-72
2023/12/29 02:02:26;;;;;;;10.10;7.00;;;;;;;4.31;82.71;100078.89;110827;244;153972;-72
2023/12/29 02:05:00;;;;;;;12.70;7.10;;;;;;;4.34;82.76;100068.31;110952;245;38813;-71
2023/12/29 02:07:34;;;;;;;12.60;7.70;;;;;;;4.37;82.90;100065.33;110817;244;153521;-71
2023/12/29 02:10:13;;;;;;;8.90;7.00;;;;;;;4.38;82.82;100064.95;110945;245;39557;-72
2023/12/29 02:12:45;;;;;;;;;;;;;;;4.36;82.69;100059.30;110870;244;153399;-73
2023/12/29 02:15:19;;;;;;;11.70;7.00;;;;;;;4.31;82.70;100059.21;110947;245;38904;-73
2023/12/29 02:18:01;;;;;;;10.60;7.40;;;;;;;4.26;82.70;100059.99;110944;245;38570;-73
2023/12/29 02:20:35;;;;;;;11.40;7.20;;;;;;;4.24;82.83;100054.52;110994;245;38587;-71
2023/12/29 02:23:10;;;;;;;9.30;7.10;;;;;;;4.23;82.81;100051.40;110930;245;39535;-72
2023/12/29 02:25:44;;;;;;;10.80;6.60;;;;;;;4.25;82.92;100051.89;110781;245;154901;-70
2023/12/29 02:28:21;;;;;;;10.20;6.90;;;;;;;4.27;83.08;100051.86;110933;246;38398;-70
2023/12/29 02:31:00;;;;;;;14.50;7.50;;;;;;;4.29;83.04;100050.27;110825;244;154596;-72
2023/12/29 02:33:34;;;;;;;11.20;6.90;;;;;;;4.28;83.13;100043.90;110930;246;38676;-72
2023/12/29 02:36:08;;;;;;;10.70;7.40;;;;;;;4.26;83.29;100039.80;110786;246;38454;-72
2023/12/29 02:38:42;;;;;;;10.70;7.10;;;;;;;4.27;83.15;100041.86;110799;244;154242;-72
2023/12/29 02:41:16;;;;;;;11.00;6.90;;;;;;;4.27;83.21;100029.94;110953;245;39754;-72
2023/12/29 02:43:50;;;;;;;10.60;7.50;;;;;;;4.30;83.39;100032.13;110643;245;178025;-72
2023/12/29 02:46:23;;;;;;;8.60;6.30;;;;;;;4.34;83.45;100031.89;110978;246;38707;-72
2023/12/29 02:48:59;;;;;;;11.40;6.90;;;;;;;4.35;83.50;100031.00;110849;244;153744;-72
2023/12/29 02:51:32;;;;;;;9.60;6.80;;;;;;;4.35;83.39;100024.09;110946;246;38887;-73
2023/12/29 02:54:07;;;;;;;11.10;7.20;;;;;;;4.32;83.31;100029.14;110904;246;38333;-73
2023/12/29 02:56:41;;;;;;;11.80;7.00;;;;;;;4.30;83.27;100027.11;110823;244;154083;-73
2023/12/29 02:59:15;;;;;;;11.20;6.80;;;;;;;4.29;83.26;100026.44;110951;246;38901;-70
2023/12/29 03:01:49;;;;;;;9.50;7.00;;;;;;;4.31;83.32;100027.78;110826;244;153786;-73
2023/12/29 03:04:23;;;;;;;10.40;6.90;;;;;;;4.32;83.27;100030.54;110963;245;38652;-71
2023/12/29 03:06:57;;;;;;;10.80;6.60;;;;;;;4.30;83.33;100032.30;110829;244;154535;-71
2023/12/29 03:09:31;;;;;;;10.20;7.20;;;;;;;4.28;83.37;100034.58;110915;246;38542;-71
2023/12/29 03:12:06;;;;;;;9.50;6.60;;;;;;;4.24;83.38;100028.61;110947;246;38863;-72
2023/12/29 03:14:40;;;;;;;13.50;7.50;;;;;;;4.22;83.51;100031.58;111003;246;39485;-72
2023/12/29 03:17:17;;;;;;;8.70;6.50;;;;;;;4.21;83.54;100028.47;110942;246;38455;-71
2023/12/29 03:19:51;;;;;;;12.20;7.40;;;;;;;4.24;83.60;100021.19;110804;244;153544;-71
2023/12/29 03:22:25;;;;;;;11.40;7.90;;;;;;;4.25;83.74;100026.17;110832;245;39316;-69
2023/12/29 03:24:59;;;;;;;11.40;7.90;;;;;;;4.25;83.80;100019.62;110882;243;154660;-69
2023/12/29 03:27:33;;;;;;;13.70;7.50;;;;;;;4.23;83.89;100011.19;110982;245;39469;-69
2023/12/29 03:30:09;;;;;;;13.00;7.70;;;;;;;4.21;83.97;100011.23;110963;245;39212;-71
2023/12/29 03:32:42;;;;;;;13.90;7.70;;;;;;;4.20;84.23;100012.80;110824;245;155007;-72
2023/12/29 03:35:16;;;;;;;11.30;6.70;;;;;;;4.22;84.35;100009.98;110960;245;38852;-72
2023/12/29 03:37:50;;;;;;;11.70;7.60;;;;;;;4.26;84.35;100009.40;110831;244;153677;-72
2023/12/29 03:40:24;;;;;;;10.30;6.90;;;;;;;4.28;84.37;100011.44;110933;245;38814;-70
2023/12/29 03:42:58;;;;;;;10.80;8.40;;;;;;;4.29;84.19;100014.19;110836;244;154424;-69
2023/12/29 03:45:32;;;;;;;12.40;7.70;;;;;;;4.27;84.18;100015.59;110972;245;39882;-71
2023/12/29 03:48:08;;;;;;;13.30;8.10;;;;;;;4.24;84.29;100010.83;110958;245;38974;-70
2023/12/29 03:50:42;;;;;;;9.70;6.50;;;;;;;4.24;84.23;100011.00;110811;244;154144;-71
2023/12/29 03:53:16;;;;;;;10.90;7.00;;;;;;;4.22;84.24;100012.06;110910;245;39827;-70
2023/12/29 03:55:50;;;;;;;10.00;7.20;;;;;;;4.24;84.26;100009.62;110810;244;154059;-69
2023/12/29 03:58:24;;;;;;;11.40;8.00;;;;;;;4.25;84.37;100004.77;110948;245;38565;-71
2023/12/29 04:00:58;;;;;;;11.70;7.70;;;;;;;4.24;84.31;99997.70;110840;244;153527;-71
2023/12/29 04:03:32;;;;;;;12.40;7.80;;;;;;;4.20;84.21;99999.50;110945;245;39792;-72
2023/12/29 04:06:06;;;;;;;11.90;7.80;;;;;;;4.15;84.45;100000.63;110921;245;38189;-73
2023/12/29 04:08:40;;;;;;;11.90;7.90;;;;;;;4.12;84.42;99998.42;110818;245;154251;-71
2023/12/29 04:11:14;;;;;;;9.90;6.70;;;;;;;4.10;84.36;99993.11;110976;245;38564;-72
2023/12/29 04:13:47;;;;;;;8.90;7.00;;;;;;;4.08;84.31;99989.86;110829;244;154583;-69
2023/12/29 04:16:21;;;;;;;9.80;7.70;;;;;;;4.07;84.49;99991.27;110950;245;40075;-72
2023/12/29 04:18:55;;;;;;;11.90;8.50;;;;;;;4.07;84.73;99992.64;110865;244;154023;-71
2023/12/29 04:21:29;;;;;;;12.20;7.80;;;;;;;4.06;84.77;99992.66;110959;245;38860;-70
2023/12/29 04:24:03;;;;;;;11.60;7.60;;;;;;;4.04;84.79;99990.45;110971;245;39102;-70
2023/12/29 04:26:41;;;;;;;13.30;8.20;;;;;;;4.01;84.78;99980.14;110825;245;153712;-71
2023/12/29 04:29:15;;;;;;;11.00;7.80;;;;;;;4.00;84.87;99973.61;110958;245;38251;-72
2023/12/29 04:31:49;;;;;;;12.00;7.40;;;;;;;4.02;84.92;99966.51;110960;245;38473;-72
2023/12/29 04:34:23;;;;;;;11.60;8.10;;;;;;;4.03;85.04;99961.65;110966;245;39076;-71
2023/12/29 04:36:57;;;;;;;12.50;8.30;;;;;;;4.03;85.02;99963.89;110824;244;153991;-70
2023/12/29 04:39:33;;;;;;;11.20;8.30;;;;;;;4.01;85.13;99963.24;110960;245;39581;-69
2023/12/29 04:42:08;;;;;;;10.80;7.50;;;;;;;3.96;85.05;99963.15;110908;245;38264;-70
2023/12/29 04:44:42;;;;;;;13.30;8.00;;;;;;;3.94;85.13;99974.77;110853;243;153940;-71
2023/12/29 04:47:16;;;;;;;9.90;7.40;;;;;;;3.94;85.22;99966.99;110972;245;38848;-70
2023/12/29 04:49:50;;;;;;;10.30;7.50;;;;;;;3.95;85.26;99970.25;110772;244;153559;-70
2023/12/29 04:52:24;;;;;;;12.70;8.20;;;;;;;3.96;85.43;99968.70;110899;245;37985;-72
2023/12/29 04:54:58;;;;;;;12.50;8.10;;;;;;;3.96;85.38;99972.48;110757;245;153449;-72
2023/12/29 04:57:32;;;;;;;13.60;8.30;;;;;;;3.93;85.43;99973.20;110877;245;38350;-72
2023/12/29 05:00:07;;;;;;;14.20;8.30;;;;;;;3.90;85.49;99971.21;110981;245;40011;-72
2023/12/29 05:02:42;;;;;;;11.20;7.60;;;;;;;3.88;85.56;99977.27;110888;245;154861;-73
2023/12/29 05:05:16;;;;;;;12.40;8.10;;;;;;;3.89;85.67;99973.30;110972;245;39561;-71
2023/12/29 05:07:50;;;;;;;13.70;8.30;;;;;;;3.94;85.93;99964.76;110745;244;153658;-73
2023/12/29 05:10:23;;;;;;;11.80;8.00;;;;;;;3.97;86.06;99963.14;110951;245;39116;-73
2023/12/29 05:12:57;;;;;;;11.10;8.20;;;;;;;4.00;86.14;99966.55;110844;243;153124;-72
2023/12/29 05:15:31;;;;;;;12.60;8.50;;;;;;;4.02;86.17;99961.49;111042;245;38427;-72
2023/12/29 05:18:05;;;;;;;12.30;7.60;;;;;;;4.00;86.29;99963.95;110932;245;39657;-72
2023/12/29 05:20:39;;;;;;;12.40;8.10;;;;;;;4.01;86.24;99963.77;110764;244;153635;-72
2023/12/29 05:23:13;;;;;;;12.50;7.90;;;;;;;4.04;86.47;99963.36;110947;245;38516;-72
2023/12/29 05:25:47;;;;;;;10.70;7.60;;;;;;;4.10;86.54;99962.73;110937;244;153652;-70
2023/12/29 05:28:21;;;;;;;11.90;8.20;;;;;;;4.15;86.46;99961.61;110960;245;38360;-72
2023/12/29 05:30:55;;;;;;;12.30;8.30;;;;;;;4.19;86.63;99958.41;110894;244;154163;-69
2023/12/29 05:33:29;;;;;;;12.20;8.50;;;;;;;4.23;86.69;99964.40;110759;245;38255;-70
2023/12/29 05:36:08;;;;;;;11.00;7.70;;;;;;;4.25;86.68;99955.73;110960;245;39276;-71
2023/12/29 05:38:42;;;;;;;9.10;7.20;;;;;;;4.29;86.75;99954.96;110301;244;714481;-71
2023/12/29 05:41:17;;;;;;;11.70;7.50;;;;;;;4.33;86.67;99944.85;110903;245;38821;-71
2023/12/29 05:43:50;;;;;;;10.80;7.90;;;;;;;4.39;86.81;99948.55;110874;244;154419;-72
2023/12/29 05:46:24;;;;;;;9.70;7.30;;;;;;;4.45;86.87;99953.77;110983;245;38560;-70
2023/12/29 05:48:58;;;;;;;11.30;7.60;;;;;;;4.50;86.88;99954.55;110835;244;154160;-72
2023/12/29 05:51:33;;;;;;;12.10;8.00;;;;;;;4.52;86.93;99956.41;111020;245;39184;-72
2023/12/29 05:54:07;;;;;;;11.20;7.90;;;;;;;4.52;86.80;99957.08;111036;245;39190;-72
2023/12/29 05:56:41;;;;;;;10.70;7.00;;;;;;;4.55;86.64;99955.33;110940;244;154742;-71
2023/12/29 05:59:15;;;;;;;9.60;7.20;;;;;;;4.58;86.81;99952.14;110975;245;38478;-73
2023/12/29 06:01:48;;;;;;;10.80;7.30;;;;;;;4.63;86.88;99951.17;110890;244;153575;-72
2023/12/29 06:04:22;;;;;;;10.50;7.80;;;;;;;4.67;86.87;99951.43;111017;245;38851;-72
2023/12/29 06:06:56;;;;;;;9.70;8.10;;;;;;;4.70;86.75;99940.17;110824;244;153422;-71
2023/12/29 06:09:30;;;;;;;9.90;7.50;;;;;;;4.70;86.76;99941.02;111077;245;39399;-72
2023/12/29 06:12:04;;;;;;;12.80;7.80;;;;;;;4.72;86.70;99939.23;110966;245;38722;-70
2023/12/29 06:14:40;;;;;;;9.30;6.70;;;;;;;4.77;86.59;99936.73;110920;244;155050;-73
2023/12/29 06:17:15;;;;;;;11.30;7.70;;;;;;;4.82;86.62;99930.23;110922;245;38664;-72
2023/12/29 06:19:49;;;;;;;10.30;6.80;;;;;;;4.89;86.66;99931.80;110886;245;153296;-72
2023/12/29 06:22:23;;;;;;;11.30;8.10;;;;;;;4.94;86.64;99923.90;110987;245;39275;-72
2023/12/29 06:24:57;;;;;;;15.00;7.90;;;;;;;4.98;86.46;99918.47;110866;244;153347;-72
2023/12/29 06:27:32;;;;;;;10.10;7.40;;;;;;;4.99;86.27;99923.63;111032;245;38529;-71
2023/12/29 06:30:07;;;;;;;11.70;7.60;;;;;;;4.98;86.02;99920.88;110952;245;38329;-72
2023/12/29 06:32:41;;;;;;;11.00;7.70;;;;;;;5.01;85.95;99926.16;110945;244;154977;-71
2023/12/29 06:35:15;;;;;;;8.30;6.30;;;;;;;5.02;85.86;99922.00;110942;245;38376;-72
2023/12/29 06:37:49;;;;;;;9.30;6.70;;;;;;;5.04;85.83;99917.98;110879;244;153056;-73
2023/12/29 06:40:23;;;;;;;8.60;6.80;;;;;;;5.04;85.71;99911.42;111052;245;38331;-73
2023/12/29 06:42:57;;;;;;;10.50;7.30;;;;;;;5.04;85.67;99915.91;110849;244;154896;-72
2023/12/29 06:45:31;;;;;;;8.00;6.00;;;;;;;5.05;85.45;99921.93;110827;245;175645;-71
2023/12/29 06:48:05;;;;;;;7.80;6.00;;;;;;;5.06;85.29;99922.24;110837;245;175641;-71
2023/12/29 06:50:40;;;;;;;8.80;6.50;;;;;;;5.07;85.27;99921.52;110739;244;153394;-72
2023/12/29 06:53:14;;;;;;;9.50;7.30;;;;;;;5.08;85.13;99921.34;110937;245;38556;-74
2023/12/29 06:55:48;;;;;;;9.80;7.20;;;;;;;5.08;85.11;99921.70;110899;244;152936;-73
2023/12/29 06:58:22;;;;;;;10.50;7.30;;;;;;;5.07;85.07;99926.70;110856;245;39464;-72
2023/12/29 07:00:56;;;;;;;10.90;6.80;;;;;;;5.08;84.91;99925.31;110786;244;154078;-71
2023/12/29 07:03:30;;;;;;;12.70;7.00;;;;;;;5.10;84.79;99920.60;111058;245;38281;-71
2023/12/29 07:06:05;;;;;;;9.00;6.10;;;;;;;5.12;84.80;99911.23;110946;245;38294;-73
2023/12/29 07:08:39;;;;;;;8.90;6.30;;;;;;;5.14;84.81;99914.45;110913;244;153733;-73
2023/12/29 07:11:15;;;;;;;11.00;6.80;;;;;;;5.14;84.63;99911.35;110929;245;38452;-71
2023/12/29 07:13:49;;;;;;;8.70;6.90;;;;;;;5.13;84.67;99908.60;110982;245;38401;-72
2023/12/29 07:16:23;;;;;;;8.20;6.10;;;;;;;5.15;84.67;99904.06;110962;245;38234;-71
2023/12/29 07:18:58;;;;;;;9.90;6.20;;;;;;;5.20;84.61;99902.04;110687;244;175587;-70
2023/12/29 07:21:32;;;;;;;9.30;6.70;;;;;;;5.26;84.74;99891.02;111099;245;39369;-72
2023/12/29 07:24:06;;;;;;;10.90;6.90;;;;;;;5.31;84.56;99889.52;110956;245;38322;-71
2023/12/29 07:26:40;;;;;;;9.70;6.30;;;;;;;5.35;84.60;99883.34;110823;244;175616;-72
2023/12/29 07:29:14;;;;;;;9.20;6.30;;;;;;;5.39;84.49;99883.95;110931;245;38486;-71
2023/12/29 07:31:48;;;;;;;10.60;7.70;;;;;;;5.44;84.27;99889.88;110890;244;154675;-70
2023/12/29 07:34:22;;;;;;;8.80;6.10;;;;;;;5.49;84.20;99889.05;110979;245;38664;-71
2023/12/29 07:36:56;;;;;;;8.80;6.00;;;;;;;5.56;84.08;99889.23;110865;244;153845;-73
2023/12/29 07:39:34;;;;;;;11.30;7.30;;;;;;;5.62;84.01;99885.61;110814;245;39134;-70
2023/12/29 07:42:09;;;;;;;9.00;6.60;;;;;;;5.67;83.82;99888.07;110914;245;39635;-72
2023/12/29 07:44:43;;;;;;;11.70;7.10;;;;;;;5.70;83.62;99882.45;110886;244;152982;-71
2023/12/29 07:47:17;;;;;;;9.60;6.00;;;;;;;5.72;83.51;99884.34;110934;245;38538;-71
2023/12/29 07:49:51;;;;;;;8.90;6.00;;;;;;;5.73;83.24;99873.40;110892;244;153449;-71
2023/12/29 07:52:25;;;;;;;7.00;5.50;;;;;;;5.77;83.22;99877.77;111003;245;38950;-72
2023/12/29 07:54:59;;;;;;;8.80;6.00;;;;;;;5.80;83.17;99873.89;110847;244;154884;-68
2023/12/29 07:57:32;;;;;;;7.40;5.20;;;;;;;5.83;83.10;99873.14;110991;245;38361;-70
2023/12/29 08:00:09;;;;;;;10.20;6.50;;;;;;;5.85;83.12;99877.04;110934;245;38391;-70
2023/12/29 08:02:43;;;;;;;7.50;5.40;;;;;;;5.86;83.09;99876.52;110874;244;153177;-70
2023/12/29 08:05:18;;;;;;;8.20;5.40;;;;;;;5.88;82.99;99868.30;111003;245;38708;-73
2023/12/29 08:07:51;;;;;;;8.40;5.10;;;;;;;5.91;82.83;99868.78;110866;245;154267;-71
2023/12/29 08:10:26;;;;;;;8.10;6.00;;;;;;;5.94;82.87;99866.96;110958;245;39451;-72
2023/12/29 08:13:00;;;;;;;7.20;5.60;;;;;;;5.97;82.86;99863.98;110819;244;153188;-72
2023/12/29 08:15:34;;;;;;;8.10;5.70;;;;;;;5.99;82.89;99860.08;110989;245;38291;-71
2023/12/29 08:18:12;;;;;;;8.20;5.40;;;;;;;6.01;82.78;99867.14;110932;245;39034;-70
2023/12/29 08:20:46;;;;;;;7.80;5.90;;;;;;;6.03;82.69;99870.72;110848;243;153295;-72
2023/12/29 08:23:20;;;;;;;9.90;5.90;;;;;;;6.05;82.29;99856.97;110949;245;38268;-72
2023/12/29 08:25:55;;;;;;;6.20;4.50;;;;;;;6.06;82.11;99855.89;110988;245;38967;-72
2023/12/29 08:28:29;;;;;;;7.50;4.80;;;;;;;6.11;82.29;99854.56;110891;245;38242;-71
2023/12/29 08:31:03;;;;;;;7.30;5.10;;;;;;;6.13;82.08;99848.95;110991;245;38550;-70
2023/12/29 08:33:37;;;;;;;7.20;4.80;;;;;;;6.15;82.21;99852.89;110867;245;38623;-70
2023/12/29 08:36:12;;;;;;;8.70;5.10;;;;;;;6.15;82.07;99858.42;110985;245;38763;-71
2023/12/29 08:38:46;;;;;;;7.30;4.40;;;;;;;6.16;81.92;99856.66;110853;244;153804;-72
2023/12/29 08:41:19;;;;;;;5.90;4.20;;;;;;;6.23;81.88;99861.85;110968;245;38457;-70
2023/12/29 08:43:54;;;;;;;8.60;4.60;;;;;;;6.31;81.80;99865.61;110769;244;153761;-72
2023/12/29 08:46:29;;;;;;;8.30;4.80;;;;;;;6.39;81.79;99860.34;110939;245;38256;-72
2023/12/29 08:49:03;;;;;;;6.10;4.40;;;;;;;6.46;81.59;99861.16;110809;243;154203;-73
2023/12/29 08:51:37;;;;;;;6.20;4.60;;;;;;;6.52;81.32;99862.73;110931;245;39696;-73
2023/12/29 08:54:11;;;;;;;6.70;4.70;;;;;;;6.58;81.29;99859.79;110922;245;38507;-71
2023/12/29 08:56:45;;;;;;;7.00;4.50;;;;;;;6.66;81.32;99857.98;110755;244;154915;-72
2023/12/29 08:59:19;;;;;;;6.00;4.70;;;;;;;6.76;81.18;99855.77;110949;245;38353;-74
2023/12/29 09:01:53;;;;;;;7.50;4.90;;;;;;;6.86;80.87;99859.98;110813;244;153212;-74
2023/12/29 09:04:27;;;;;;;8.40;5.40;;;;;;;6.94;80.63;99850.00;110960;245;39013;-72
2023/12/29 09:07:01;;;;;;;8.40;5.70;;;;;;;7.02;80.52;99856.70;110842;244;154257;-70
2023/12/29 09:09:40;;;;;;;8.30;5.60;;;;;;;7.09;80.05;99851.45;110968;245;38287;-68
2023/12/29 09:12:21;;;;;;;8.60;6.20;;;;;;;7.15;79.60;99853.87;110933;245;38323;-67
2023/12/29 09:15:01;;;;;;;9.90;6.20;;;;;;;7.19;79.43;99858.58;110273;245;906927;-69
2023/12/29 09:17:41;;;;;;;7.40;5.40;;;;;;;7.27;79.38;99853.64;110947;245;38529;-70
2023/12/29 09:20:15;;;;;;;9.30;5.60;;;;;;;7.38;79.07;99848.07;110782;245;175439;-72
2023/12/29 09:22:50;;;;;;;7.20;4.90;;;;;;;7.50;78.74;99841.41;111003;245;38553;-72
2023/12/29 09:25:27;;;;;;;8.80;5.30;;;;;;;7.60;78.27;99836.75;110860;244;153584;-70
2023/12/29 09:28:02;;;;;;;6.60;5.50;;;;;;;7.72;78.44;99836.48;111017;245;39986;-71
2023/12/29 09:30:36;;;;;;;7.70;5.50;;;;;;;7.84;77.65;99837.48;110943;245;38283;-71
2023/12/29 09:33:12;;;;;;;5.90;5.10;;;;;;;7.93;77.40;99838.73;110985;245;39722;-71
2023/12/29 09:35:46;;;;;;;7.90;5.60;;;;;;;8.03;76.87;99835.39;110931;246;38376;-71
2023/12/29 09:38:22;;;;;;;7.30;5.40;;;;;;;8.13;76.82;99837.99;110910;244;154186;-71
2023/12/29 09:40:57;;;;;;;7.30;5.10;;;;;;;8.27;76.34;99831.20;110988;245;38555;-71
2023/12/29 09:43:33;;;;;;;6.60;5.10;;;;;;;8.45;76.01;99833.70;110905;244;153758;-71
2023/12/29 09:46:07;;;;;;;6.80;5.50;;;;;;;8.60;75.36;99833.68;111079;245;39798;-71
2023/12/29 09:48:41;;;;;;;6.70;5.20;;;;;;;8.68;74.75;99827.27;110935;245;38255;-70
2023/12/29 09:51:15;;;;;;;7.60;5.70;;;;;;;8.70;73.95;99825.11;110937;245;153154;-73
2023/12/29 09:53:49;;;;;;;7.80;6.20;;;;;;;8.73;74.08;99822.18;110945;245;39186;-71
2023/12/29 09:56:24;;;;;;;6.60;5.00;;;;;;;8.90;74.54;99824.30;110780;244;153333;-72
2023/12/29 09:59:00;;;;;;;9.30;5.80;;;;;;;9.12;73.92;99818.54;110912;245;38674;-71
2023/12/29 10:01:35;;;;;;;8.00;6.20;;;;;;;9.25;73.22;99821.65;110802;244;175235;-71
2023/12/29 10:04:15;;;;;;;6.60;5.50;;;;;;;9.26;73.14;99824.23;111040;245;38746;-70
2023/12/29 10:06:48;;;;;;;7.80;6.30;;;;;;;9.27;73.03;99823.13;111023;245;38276;-70
2023/12/29 10:09:22;;;;;;;7.70;5.60;;;;;;;9.26;72.51;99825.28;110993;245;39434;-71
2023/12/29 10:11:56;;;;;;;7.70;5.80;;;;;;;9.22;72.73;99824.21;110907;245;39449;-70
2023/12/29 10:14:37;;;;;;;7.80;5.70;;;;;;;9.18;72.62;99824.74;110961;245;38238;-74
2023/12/29 10:17:17;;;;;;;9.10;5.80;;;;;;;9.15;72.56;99829.04;110986;245;38271;-71
2023/12/29 10:20:03;;;;;;;7.40;6.00;;;;;;;9.16;72.79;99826.56;110849;244;154438;-70
2023/12/29 10:22:42;;;;;;;8.00;5.30;;;;;;;9.20;72.77;99819.95;110907;245;38308;-72
2023/12/29 10:25:17;;;;;;;9.30;5.90;;;;;;;9.29;72.81;99821.31;110994;245;39488;-70
2023/12/29 10:27:53;;;;;;;6.70;5.30;;;;;;;9.37;72.86;99817.51;110912;245;38436;-72
2023/12/29 10:30:27;;;;;;;6.50;5.30;;;;;;;9.49;72.77;99813.00;110973;245;38239;-75
2023/12/29 10:33:02;;;;;;;6.40;5.10;;;;;;;9.53;72.29;99811.95;110924;244;154183;-74
2023/12/29 10:35:38;;;;;;;6.10;5.30;;;;;;;9.52;71.89;99806.26;106324;245;3013693;-73
2023/12/29 10:38:21;;;;;;;8.60;5.40;;;;;;;9.48;71.54;99800.35;110835;245;154477;-70
2023/12/29 10:41:03;;;;;;;7.50;5.60;;;;;;;9.40;71.68;99799.48;111019;245;38602;-70
2023/12/29 10:43:37;;;;;;;7.80;6.00;;;;;;;9.29;71.73;99811.92;110635;244;153199;-71
2023/12/29 10:46:13;;;;;;;6.20;4.90;;;;;;;9.22;71.93;99807.69;110995;245;38295;-70
2023/12/29 10:48:48;;;;;;;7.20;5.70;;;;;;;9.18;72.44;99810.14;110972;245;38424;-71
2023/12/29 10:51:30;;;;;;;7.30;5.40;;;;;;;9.15;72.57;99814.42;110849;244;152945;-72
2023/12/29 10:54:05;;;;;;;6.50;5.10;;;;;;;9.12;72.35;99813.16;110952;245;38301;-72
2023/12/29 10:56:41;;;;;;;6.20;4.50;;;;;;;9.11;72.37;99813.20;110866;245;153670;-72
2023/12/29 10:59:15;;;;;;;6.40;4.90;;;;;;;9.12;72.41;99807.23;110933;245;38663;-72
2023/12/29 11:01:52;;;;;;;7.50;5.10;;;;;;;9.14;72.42;99806.11;110873;244;152810;-70
2023/12/29 11:04:28;;;;;;;6.40;4.60;;;;;;;9.15;72.45;99806.08;110980;245;38764;-70
2023/12/29 11:07:05;;;;;;;7.00;5.20;;;;;;;9.16;72.40;99805.52;110953;245;38264;-70
2023/12/29 11:09:39;;;;;;;6.50;5.50;;;;;;;9.12;72.07;99804.44;110832;244;152724;-71
2023/12/29 11:12:13;;;;;;;9.50;5.20;;;;;;;9.09;72.25;99800.73;110950;245;38617;-72
2023/12/29 11:14:49;;;;;;;6.70;5.10;;;;;;;9.09;72.56;99797.98;110846;244;153130;-70
2023/12/29 11:17:26;;;;;;;7.10;5.00;;;;;;;9.06;72.33;99797.91;110930;245;39612;-71
2023/12/29 11:20:01;;;;;;;6.70;4.60;;;;;;;9.07;72.52;99796.67;110911;244;153851;-72
2023/12/29 11:22:35;;;;;;;9.80;6.40;;;;;;;9.09;72.39;99790.87;110989;245;38268;-73
2023/12/29 11:25:12;;;;;;;10.90;7.10;;;;;;;9.09;72.40;99790.33;110935;245;38243;-73
2023/12/29 11:27:47;;;;;;;9.20;5.90;;;;;;;9.12;72.72;99779.59;110889;245;38371;-72
2023/12/29 11:30:21;;;;;;;7.20;5.70;;;;;;;9.11;72.26;99773.00;111011;245;39001;-70
2023/12/29 11:33:02;;;;;;;7.70;5.50;;;;;;;9.08;72.27;99771.20;110859;245;153246;-70
2023/12/29 11:35:55;;;;;;;7.00;5.00;;;;;;;9.08;72.67;99764.63;110962;245;38264;-71
2023/12/29 11:38:56;;;;;;;6.80;5.50;;;;;;;9.05;72.39;99760.20;110715;245;153445;-70
2023/12/29 11:41:34;;;;;;;6.80;5.20;;;;;;;9.02;72.47;99756.52;111008;245;38850;-71
2023/12/29 11:44:09;;;;;;;8.00;5.10;;;;;;;9.05;72.68;99760.36;110848;244;155235;-70
2023/12/29 11:46:46;;;;;;;6.70;5.20;;;;;;;9.10;72.66;99752.14;110849;245;38249;-71
2023/12/29 11:49:23;;;;;;;6.30;5.20;;;;;;;9.14;72.45;99744.70;110950;245;39453;-69
2023/12/29 11:51:57;;;;;;;9.40;5.90;;;;;;;9.18;72.57;99738.95;110944;245;39468;-72
2023/12/29 11:54:32;;;;;;;6.20;5.10;;;;;;;9.23;72.59;99736.13;110951;245;39218;-72
2023/12/29 11:57:15;;;;;;;7.40;5.60;;;;;;;9.26;72.71;99732.16;110907;244;153995;-69
2023/12/29 11:59:52;;;;;;;6.80;4.60;;;;;;;9.27;72.44;99735.62;109910;244;1104631;-70
2023/12/29 12:02:32;;;;;;;8.00;5.10;;;;;;;9.26;72.35;99729.37;110561;247;59044;-70
2023/12/29 12:05:07;;;;;;;6.80;5.00;;;;;;;9.25;72.42;99725.94;110934;246;38828;-70
2023/12/29 12:08:02;;;;;;;6.80;4.90;;;;;;;9.24;72.41;99728.42;111019;246;38239;-72